createdAt,value
2023-04-13T00:00:09.405Z,94216.56
2023-04-13T00:02:39.299Z,94213.69
2023-04-13T00:05:09.828Z,94217.94
2023-04-13T00:07:40.056Z,94206.25
2023-04-13T00:10:08.777Z,94216.34
2023-04-13T00:12:38.768Z,94218.19
2023-04-13T00:15:09.386Z,94221.63
2023-04-13T00:17:37.906Z,94229.56
2023-04-13T00:20:09.815Z,94234.53
2023-04-13T00:22:38.994Z,94233.47
2023-04-13T00:25:06.385Z,94239.59
2023-04-13T00:27:33.043Z,94240.63
2023-04-13T00:29:59.821Z,94243.84
2023-04-13T00:32:26.776Z,94238.00
2023-04-13T00:34:53.469Z,94240.63
2023-04-13T00:37:23.953Z,94231.66
2023-04-13T00:39:51.818Z,94235.34
2023-04-13T00:42:21.689Z,94234.31
2023-04-13T00:44:48.855Z,94229.00
2023-04-13T00:47:18.897Z,94226.38
2023-04-13T00:49:47.730Z,94229.78
2023-04-13T00:52:14.658Z,94230.59
2023-04-13T00:54:43.549Z,94231.44
2023-04-13T00:57:12.382Z,94232.78
2023-04-13T00:59:39.320Z,94236.47
2023-04-13T01:02:08.377Z,94244.41
2023-04-13T01:04:37.882Z,94241.75
2023-04-13T01:07:27.473Z,94231.16
2023-04-13T01:10:12.490Z,94239.66
2023-04-13T01:12:56.832Z,94240.47
2023-04-13T01:15:25.658Z,94232.78
2023-04-13T01:18:00.612Z,94245.78
2023-04-13T01:20:32.553Z,94244.41
2023-04-13T01:23:01.418Z,94240.72
2023-04-13T01:25:40.886Z,94238.06
2023-04-13T01:28:09.390Z,94243.34
2023-04-13T01:30:42.168Z,94241.25
2023-04-13T01:33:09.760Z,94236.47
2023-04-13T01:35:37.156Z,94234.38
2023-04-13T01:38:07.134Z,94237.00
2023-04-13T01:40:37.030Z,94238.88
2023-04-13T01:43:08.533Z,94242.31
2023-04-13T01:45:47.622Z,94246.56
2023-04-13T01:48:52.309Z,94242.09
2023-04-13T01:51:20.357Z,94239.66
2023-04-13T01:53:49.208Z,94239.66
2023-04-13T01:56:17.948Z,94224.84
2023-04-13T01:58:44.566Z,94228.28
2023-04-13T02:01:11.255Z,94222.44
2023-04-13T02:03:43.282Z,94221.41
2023-04-13T02:06:10.569Z,94231.16
2023-04-13T02:08:42.450Z,94225.88
2023-04-13T02:11:13.770Z,94225.09
2023-04-13T02:13:44.539Z,94234.84
2023-04-13T02:16:13.640Z,94244.66
2023-04-13T02:18:42.584Z,94233.25
2023-04-13T02:21:09.695Z,94244.66
2023-04-13T02:23:37.127Z,94248.09
2023-04-13T02:26:08.462Z,94239.59
2023-04-13T02:28:40.331Z,94250.72
2023-04-13T02:31:12.016Z,94240.38
2023-04-13T02:33:39.892Z,94254.41
2023-04-13T02:36:07.060Z,94261.31
2023-04-13T02:38:37.325Z,94257.88
2023-04-13T02:41:04.166Z,94259.72
2023-04-13T02:43:36.035Z,94252.81
2023-04-13T02:46:05.610Z,94261.81
2023-04-13T02:48:37.051Z,94261.81
2023-04-13T02:51:03.993Z,94258.91
2023-04-13T02:53:30.741Z,94258.91
2023-04-13T02:55:57.468Z,94268.69
2023-04-13T02:58:26.763Z,94268.34
2023-04-13T03:00:53.445Z,94269.75
2023-04-13T03:03:20.518Z,94265.50
2023-04-13T03:05:50.755Z,94276.06
2023-04-13T03:08:17.470Z,94272.03
2023-04-13T03:10:45.008Z,94273.44
2023-04-13T03:13:16.377Z,94274.47
2023-04-13T03:15:43.064Z,94266.72
2023-04-13T03:18:09.745Z,94271.22
2023-04-13T03:20:38.837Z,94266.72
2023-04-13T03:23:10.695Z,94270.22
2023-04-13T03:25:37.375Z,94281.81
2023-04-13T03:28:07.131Z,94273.28
2023-04-13T03:30:38.937Z,94262.28
2023-04-13T03:33:07.763Z,94281.81
2023-04-13T03:35:34.448Z,94287.69
2023-04-13T03:38:04.325Z,94281.81
2023-04-13T03:40:33.659Z,94270.84
2023-04-13T03:43:05.605Z,94280.88
2023-04-13T03:45:34.557Z,94279.75
2023-04-13T03:48:01.342Z,94281.81
2023-04-13T03:50:32.828Z,94289.16
2023-04-13T03:53:04.129Z,94280.09
2023-04-13T03:55:32.964Z,94282.19
2023-04-13T03:57:59.660Z,94279.78
2023-04-13T04:00:28.965Z,94286.09
2023-04-13T04:02:57.911Z,94282.66
2023-04-13T04:05:24.868Z,94292.22
2023-04-13T04:07:51.562Z,94286.34
2023-04-13T04:10:19.352Z,94278.88
2023-04-13T04:12:46.060Z,94287.06
2023-04-13T04:15:12.768Z,94306.25
2023-04-13T04:17:40.128Z,94315.09
2023-04-13T04:20:07.870Z,94308.28
2023-04-13T04:22:35.168Z,94305.00
2023-04-13T04:28:02.458Z,94303.34
2023-04-13T04:30:33.900Z,94317.28
2023-04-13T04:33:05.257Z,94301.94
2023-04-13T04:35:37.339Z,94316.22
2023-04-13T04:38:06.600Z,94314.88
2023-04-13T04:40:38.439Z,94314.78
2023-04-13T04:43:07.804Z,94315.72
2023-04-13T04:45:36.330Z,94311.72
2023-04-13T04:48:04.275Z,94322.50
2023-04-13T04:50:31.126Z,94311.50
2023-04-13T04:53:02.824Z,94307.16
2023-04-13T04:55:31.923Z,94313.34
2023-04-13T04:57:58.595Z,94312.44
2023-04-13T05:00:30.411Z,94318.06
2023-04-13T05:02:57.917Z,94313.91
2023-04-13T05:05:25.516Z,94314.84
2023-04-13T05:07:52.259Z,94318.06
2023-04-13T05:10:21.133Z,94311.28
2023-04-13T05:12:49.968Z,94310.84
2023-04-13T05:15:16.850Z,94308.75
2023-04-13T05:17:46.760Z,94319.66
2023-04-13T05:20:16.243Z,94323.19
2023-04-13T05:22:43.023Z,94314.25
2023-04-13T05:25:12.831Z,94318.28
2023-04-13T05:27:41.696Z,94317.00
2023-04-13T05:30:11.029Z,94314.16
2023-04-13T05:32:39.864Z,94319.22
2023-04-13T05:35:07.147Z,94316.09
2023-04-13T05:37:33.786Z,94319.31
2023-04-13T05:40:00.497Z,94320.94
2023-04-13T05:42:30.169Z,94311.16
2023-04-13T05:44:56.935Z,94314.16
2023-04-13T05:47:24.177Z,94307.84
2023-04-13T05:49:53.083Z,94316.31
2023-04-13T05:52:20.924Z,94316.88
2023-04-13T05:54:49.942Z,94322.75
2023-04-13T05:57:17.078Z,94332.06
2023-04-13T05:59:46.753Z,94309.31
2023-04-13T06:02:13.524Z,94300.69
2023-04-13T06:04:43.600Z,94298.59
2023-04-13T06:07:10.355Z,94307.91
2023-04-13T06:09:36.982Z,94305.03
2023-04-13T06:12:04.059Z,94305.03
2023-04-13T06:14:32.930Z,94309.38
2023-04-13T06:16:59.633Z,94317.88
2023-04-13T06:19:29.115Z,94313.16
2023-04-13T06:21:58.554Z,94316.94
2023-04-13T06:24:25.351Z,94318.09
2023-04-13T06:26:52.382Z,94316.31
2023-04-13T06:29:21.287Z,94318.53
2023-04-13T06:31:47.940Z,94324.38
2023-04-13T06:34:14.745Z,94325.75
2023-04-13T06:36:41.481Z,94318.94
2023-04-13T06:39:09.462Z,94321.94
2023-04-13T06:41:41.680Z,94324.09
2023-04-13T06:44:08.763Z,94323.59
2023-04-13T06:46:39.259Z,94318.88
2023-04-13T06:49:08.087Z,94311.28
2023-04-13T06:51:39.492Z,94316.66
2023-04-13T06:54:06.645Z,94309.28
2023-04-13T06:56:33.358Z,94309.06
2023-04-13T06:59:02.855Z,94313.91
2023-04-13T07:01:32.237Z,94308.94
2023-04-13T07:04:04.305Z,94308.47
2023-04-13T07:06:32.154Z,94313.28
2023-04-13T07:09:03.618Z,94314.41
2023-04-13T07:11:32.957Z,94312.81
2023-04-13T07:14:02.180Z,94307.59
2023-04-13T07:16:33.655Z,94311.34
2023-04-13T07:19:02.786Z,94317.25
2023-04-13T07:21:34.417Z,94308.00
2023-04-13T07:24:03.536Z,94305.13
2023-04-13T07:26:32.857Z,94306.72
2023-04-13T07:28:59.696Z,94309.94
2023-04-13T07:31:28.687Z,94312.34
2023-04-13T07:33:57.613Z,94302.53
2023-04-13T07:36:26.971Z,94298.84
2023-04-13T07:38:53.637Z,94297.25
2023-04-13T07:41:22.653Z,94302.06
2023-04-13T07:43:51.693Z,94296.75
2023-04-13T07:46:20.578Z,94287.81
2023-04-13T07:48:51.979Z,94295.50
2023-04-13T07:51:19.116Z,94277.78
2023-04-13T07:53:45.886Z,94284.13
2023-04-13T07:56:15.522Z,94294.22
2023-04-13T07:58:44.514Z,94280.97
2023-04-13T08:01:13.454Z,94274.09
2023-04-13T08:03:40.352Z,94278.34
2023-04-13T08:06:08.256Z,94275.91
2023-04-13T08:08:37.295Z,94288.94
2023-04-13T08:11:04.040Z,94282.03
2023-04-13T08:13:30.797Z,94279.59
2023-04-13T08:16:00.397Z,94278.81
2023-04-13T08:18:32.138Z,94275.13
2023-04-13T08:21:01.272Z,94268.22
2023-04-13T08:23:32.797Z,94277.53
2023-04-13T08:26:02.700Z,94266.16
2023-04-13T08:28:32.600Z,94263.22
2023-04-13T08:30:59.470Z,94254.50
2023-04-13T08:33:28.399Z,94258.28
2023-04-13T08:35:55.213Z,94253.53
2023-04-13T08:38:24.065Z,94260.19
2023-04-13T08:40:51.003Z,94256.00
2023-04-13T08:43:23.397Z,94254.72
2023-04-13T08:45:52.320Z,94253.44
2023-04-13T08:48:23.460Z,94243.16
2023-04-13T08:50:53.513Z,94241.09
2023-04-13T08:53:20.147Z,94243.78
2023-04-13T08:55:47.044Z,94242.69
2023-04-13T08:58:16.228Z,94233.38
2023-04-13T09:00:43.477Z,94237.38
2023-04-13T09:03:14.298Z,94239.00
2023-04-13T09:05:44.050Z,94235.28
2023-04-13T09:08:17.136Z,94237.69
2023-04-13T09:10:44.002Z,94227.91
2023-04-13T09:13:12.919Z,94229.50
2023-04-13T09:15:41.177Z,94235.34
2023-04-13T09:18:11.533Z,94238.00
2023-04-13T09:20:38.571Z,94240.41
2023-04-13T09:23:17.062Z,94224.25
2023-04-13T09:25:50.490Z,94233.81
2023-04-13T09:28:20.383Z,94231.75
2023-04-13T09:30:47.233Z,94224.81
2023-04-13T09:33:18.144Z,94212.63
2023-04-13T09:35:47.411Z,94210.56
2023-04-13T09:38:16.177Z,94209.50
2023-04-13T09:40:49.587Z,94210.28
2023-04-13T09:43:17.265Z,94200.50
2023-04-13T09:45:46.400Z,94199.00
2023-04-13T09:48:24.573Z,94202.66
2023-04-13T09:50:58.684Z,94196.53
2023-04-13T09:53:29.357Z,94191.59
2023-04-13T09:55:59.353Z,94179.41
2023-04-13T09:58:26.544Z,94178.91
2023-04-13T10:00:53.225Z,94185.78
2023-04-13T10:03:22.431Z,94176.81
2023-04-13T10:05:59.511Z,94181.63
2023-04-13T10:08:38.046Z,94177.94
2023-04-13T10:11:10.943Z,94167.34
2023-04-13T10:13:43.758Z,94165.47
2023-04-13T10:16:36.729Z,94168.94
2023-04-13T10:19:25.122Z,94162.31
2023-04-13T10:21:54.801Z,94166.31
2023-04-13T10:24:24.016Z,94170.03
2023-04-13T10:26:56.292Z,94166.28
2023-04-13T10:29:29.900Z,94154.38
2023-04-13T10:32:03.647Z,94158.94
2023-04-13T10:34:32.007Z,94150.44
2023-04-13T10:37:03.689Z,94152.03
2023-04-13T10:39:37.776Z,94141.44
2023-04-13T10:42:06.893Z,94135.06
2023-04-13T10:44:50.572Z,94140.66
2023-04-13T10:47:20.665Z,94137.19
2023-04-13T10:49:48.551Z,94136.41
2023-04-13T10:52:18.027Z,94142.25
2023-04-13T10:54:49.309Z,94138.22
2023-04-13T10:57:20.687Z,94133.97
2023-04-13T10:59:57.876Z,94126.28
2023-04-13T11:02:33.035Z,94130.81
2023-04-13T11:05:00.514Z,94120.72
2023-04-13T11:07:29.580Z,94118.31
2023-04-13T11:12:29.208Z,94119.63
2023-04-13T11:14:55.924Z,94120.94
2023-04-13T11:17:25.383Z,94112.44
2023-04-13T11:19:53.240Z,94107.91
2023-04-13T11:22:23.764Z,94106.31
2023-04-13T11:24:51.314Z,94102.63
2023-04-13T11:27:21.195Z,94104.25
2023-04-13T11:30:05.178Z,94099.19
2023-04-13T11:32:40.185Z,94094.13
2023-04-13T11:35:11.007Z,94087.22
2023-04-13T11:37:45.774Z,94101.53
2023-04-13T11:40:20.476Z,94098.09
2023-04-13T11:42:53.377Z,94098.31
2023-04-13T11:45:22.375Z,94098.31
2023-04-13T11:47:52.444Z,94095.09
2023-04-13T11:50:19.976Z,94093.50
2023-04-13T11:52:49.286Z,94100.41
2023-04-13T11:55:23.479Z,94093.50
2023-04-13T11:57:51.376Z,94086.59
2023-04-13T12:00:27.545Z,94090.84
2023-04-13T12:03:02.287Z,94083.97
2023-04-13T12:05:33.918Z,94081.31
2023-04-13T12:08:04.810Z,94080.75
2023-04-13T12:16:01.292Z,94074.88
2023-04-13T12:18:38.019Z,94067.22
2023-04-13T12:21:10.017Z,94068.00
2023-04-13T12:23:40.164Z,94056.84
2023-04-13T12:26:33.207Z,94057.91
2023-04-13T12:28:56.777Z,94057.13
2023-04-13T12:31:26.005Z,94056.31
2023-04-13T12:33:54.870Z,94053.66
2023-04-13T12:36:21.848Z,94039.59
2023-04-13T12:38:48.521Z,94044.13
2023-04-13T12:41:15.187Z,94042.53
2023-04-13T12:43:41.900Z,94040.91
2023-04-13T12:46:11.645Z,94038.00
2023-04-13T12:48:38.491Z,94035.06
2023-04-13T12:51:08.562Z,94030.31
2023-04-13T12:53:36.125Z,94030.84
2023-04-13T12:56:04.922Z,94025.78
2023-04-13T12:58:35.527Z,94025.53
2023-04-13T13:01:02.923Z,94029.78
2023-04-13T13:03:33.556Z,94020.25
2023-04-13T13:06:00.325Z,94017.00
2023-04-13T13:08:34.925Z,94013.34
2023-04-13T13:11:03.597Z,94012.53
2023-04-13T13:13:32.614Z,94005.63
2023-04-13T13:16:04.110Z,94002.75
2023-04-13T13:18:47.061Z,94001.13
2023-04-13T13:21:17.391Z,94009.34
2023-04-13T13:23:46.475Z,93996.34
2023-04-13T13:28:48.252Z,93980.41
2023-04-13T13:31:15.467Z,93989.22
2023-04-13T13:33:45.091Z,93989.44
2023-04-13T13:36:14.711Z,93991.84
2023-04-13T13:38:47.414Z,93984.97
2023-04-13T13:41:16.389Z,93988.38
2023-04-13T13:43:43.019Z,93986.78
2023-04-13T13:46:09.778Z,93986.00
2023-04-13T13:48:36.570Z,93982.56
2023-04-13T13:51:07.535Z,93977.25
2023-04-13T13:53:34.465Z,93979.91
2023-04-13T13:56:03.299Z,93968.53
2023-04-13T13:58:29.997Z,93970.59
2023-04-13T14:00:59.516Z,93963.47
2023-04-13T14:03:30.979Z,93966.13
2023-04-13T14:05:59.929Z,93957.38
2023-04-13T14:08:28.815Z,93949.19
2023-04-13T14:10:55.565Z,93941.25
2023-04-13T14:13:24.391Z,93942.28
2023-04-13T14:15:53.364Z,93933.84
2023-04-13T14:18:24.008Z,93937.31
2023-04-13T14:23:37.524Z,93944.19
2023-04-13T14:26:07.468Z,93937.53
2023-04-13T14:28:37.327Z,93933.28
2023-04-13T14:31:04.379Z,93934.88
2023-04-13T14:33:31.167Z,93932.25
2023-04-13T14:35:57.861Z,93927.75
2023-04-13T14:38:24.891Z,93930.41
2023-04-13T14:40:51.888Z,93937.00
2023-04-13T14:43:18.537Z,93936.19
2023-04-13T14:45:45.251Z,93940.19
2023-04-13T14:48:11.983Z,93937.00
2023-04-13T14:50:43.914Z,93942.84
2023-04-13T14:53:10.567Z,93949.72
2023-04-13T14:55:37.731Z,93947.06
2023-04-13T14:58:06.738Z,93947.59
2023-04-13T15:00:39.194Z,93942.28
2023-04-13T15:03:07.820Z,93949.19
2023-04-13T15:05:41.619Z,93957.13
2023-04-13T15:08:08.800Z,93957.66
2023-04-13T15:10:35.493Z,93959.78
2023-04-13T15:13:03.311Z,93961.38
2023-04-13T15:15:34.569Z,93962.97
2023-04-13T15:18:03.139Z,93966.66
2023-04-13T15:20:32.385Z,93971.19
2023-04-13T15:22:59.051Z,93954.97
2023-04-13T15:25:25.865Z,93980.44
2023-04-13T15:27:56.884Z,93965.38
2023-04-13T15:30:34.874Z,93966.66
2023-04-13T15:33:05.038Z,93968.25
2023-04-13T15:35:36.393Z,93956.88
2023-04-13T15:38:03.341Z,93972.78
2023-04-13T15:40:32.993Z,93962.19
2023-04-13T15:43:02.273Z,93962.97
2023-04-13T15:45:31.440Z,93968.25
2023-04-13T15:48:00.710Z,93962.19
2023-04-13T15:50:28.176Z,93966.16
2023-04-13T15:52:57.458Z,93962.97
2023-04-13T15:55:26.794Z,93968.53
2023-04-13T15:57:57.264Z,93958.19
2023-04-13T16:00:24.820Z,93961.91
2023-04-13T16:02:51.616Z,93964.00
2023-04-13T16:05:21.084Z,93969.84
2023-04-13T16:07:50.403Z,93963.78
2023-04-13T16:10:19.250Z,93983.09
2023-04-13T16:12:50.168Z,93977.81
2023-04-13T16:15:17.132Z,93969.56
2023-04-13T16:17:47.872Z,93974.09
2023-04-13T16:20:21.232Z,93969.84
2023-04-13T16:22:53.605Z,93978.34
2023-04-13T16:25:22.431Z,93975.16
2023-04-13T16:27:49.161Z,93982.03
2023-04-13T16:30:17.696Z,93972.28
2023-04-13T16:32:48.316Z,93968.25
2023-04-13T16:35:14.981Z,93982.59
2023-04-13T16:37:42.423Z,93982.03
2023-04-13T16:40:12.695Z,93976.75
2023-04-13T16:42:44.652Z,93984.69
2023-04-13T16:45:15.082Z,93975.16
2023-04-13T16:47:46.964Z,93969.84
2023-04-13T16:50:15.789Z,93966.16
2023-04-13T16:52:42.857Z,93970.66
2023-04-13T16:55:14.255Z,93957.66
2023-04-13T16:57:47.194Z,93968.03
2023-04-13T17:00:18.273Z,93966.97
2023-04-13T17:02:49.904Z,93966.69
2023-04-13T17:05:18.915Z,93965.38
2023-04-13T17:07:47.867Z,93967.22
2023-04-13T17:10:18.925Z,93969.06
2023-04-13T17:12:48.233Z,93963.78
2023-04-13T17:15:15.000Z,93968.25
2023-04-13T17:17:41.968Z,93958.41
2023-04-13T17:20:09.371Z,93965.63
2023-04-13T17:22:38.284Z,93970.91
2023-04-13T17:25:07.800Z,93970.91
2023-04-13T17:27:34.410Z,93975.16
2023-04-13T17:30:03.773Z,93982.03
2023-04-13T17:32:30.686Z,93984.16
2023-04-13T17:34:57.395Z,93992.91
2023-04-13T17:37:24.471Z,93994.75
2023-04-13T17:39:51.501Z,94002.44
2023-04-13T17:42:22.956Z,94004.28
2023-04-13T17:44:51.993Z,94008.53
2023-04-13T17:47:18.614Z,94008.78
2023-04-13T17:49:47.481Z,94014.31
2023-04-13T17:52:14.078Z,94021.22
2023-04-13T17:54:40.801Z,94021.22
2023-04-13T17:57:07.821Z,94016.72
2023-04-13T17:59:36.951Z,94017.78
2023-04-13T18:02:05.864Z,94025.47
2023-04-13T18:04:35.380Z,94016.19
2023-04-13T18:07:04.672Z,94020.13
2023-04-13T18:09:33.654Z,94019.63
2023-04-13T18:12:02.428Z,94021.22
2023-04-13T18:14:30.210Z,94021.47
2023-04-13T18:16:56.902Z,94024.91
2023-04-13T18:19:27.650Z,94025.47
2023-04-13T18:21:56.519Z,94025.41
2023-04-13T18:24:23.239Z,94034.47
2023-04-13T18:26:52.213Z,94035.50
2023-04-13T18:29:19.094Z,94028.63
2023-04-13T18:31:45.933Z,94037.91
2023-04-13T18:34:15.828Z,94042.91
2023-04-13T18:36:49.709Z,94047.97
2023-04-13T18:39:17.098Z,94027.56
2023-04-13T18:41:48.518Z,94041.63
2023-04-13T18:44:15.505Z,94048.75
2023-04-13T18:46:42.229Z,94054.84
2023-04-13T18:49:11.035Z,94053.00
2023-04-13T18:51:37.797Z,94059.34
2023-04-13T18:54:04.617Z,94056.94
2023-04-13T18:56:31.288Z,94067.28
2023-04-13T18:58:57.994Z,94058.56
2023-04-13T19:01:24.767Z,94066.50
2023-04-13T19:03:52.557Z,94067.28
2023-04-13T19:06:20.159Z,94067.28
2023-04-13T19:08:46.871Z,94065.69
2023-04-13T19:11:16.083Z,94070.47
2023-04-13T19:13:44.839Z,94070.75
2023-04-13T19:16:13.771Z,94072.56
2023-04-13T19:18:45.775Z,94079.47
2023-04-13T19:21:12.499Z,94071.78
2023-04-13T19:23:40.423Z,94079.75
2023-04-13T19:26:09.635Z,94076.03
2023-04-13T19:28:38.516Z,94075.22
2023-04-13T19:31:07.382Z,94087.91
2023-04-13T19:33:36.241Z,94078.38
2023-04-13T19:36:09.388Z,94077.31
2023-04-13T19:38:36.073Z,94079.97
2023-04-13T19:41:04.990Z,94070.97
2023-04-13T19:43:31.596Z,94077.56
2023-04-13T19:45:58.284Z,94079.97
2023-04-13T19:48:25.410Z,94095.84
2023-04-13T19:50:54.234Z,94110.47
2023-04-13T19:53:20.924Z,94094.25
2023-04-13T19:55:47.628Z,94088.97
2023-04-13T19:58:17.553Z,94086.31
2023-04-13T20:00:47.322Z,94096.66
2023-04-13T20:03:14.292Z,94109.09
2023-04-13T20:05:43.240Z,94100.59
2023-04-13T20:08:14.900Z,94093.44
2023-04-13T20:10:44.698Z,94103.25
2023-04-13T20:13:13.626Z,94101.66
2023-04-13T20:15:42.517Z,94099.56
2023-04-13T20:18:11.592Z,94097.97
2023-04-13T20:20:42.475Z,94107.72
2023-04-13T20:23:11.586Z,94110.66
2023-04-13T20:25:41.984Z,94103.75
2023-04-13T20:28:10.235Z,94099.25
2023-04-13T20:30:40.052Z,94106.13
2023-04-13T20:33:07.416Z,94100.06
2023-04-13T20:35:34.367Z,94109.03
2023-04-13T20:38:04.878Z,94101.66
2023-04-13T20:40:36.116Z,94088.66
2023-04-13T20:43:03.609Z,94110.06
2023-04-13T20:45:32.433Z,94105.34
2023-04-13T20:50:37.307Z,94100.06
2023-04-13T20:53:08.906Z,94108.22
2023-04-13T20:55:39.308Z,94099.47
2023-04-13T20:58:08.200Z,94095.22
2023-04-13T21:00:35.273Z,94110.88
2023-04-13T21:03:04.315Z,94102.13
2023-04-13T21:05:31.021Z,94095.22
2023-04-13T21:07:57.682Z,94101.56
2023-04-13T21:10:26.752Z,94101.09
2023-04-13T21:12:55.558Z,94103.75
2023-04-13T21:15:30.952Z,94100.53
2023-04-13T21:17:57.654Z,94102.13
2023-04-13T21:20:26.456Z,94099.47
2023-04-13T21:22:55.400Z,94089.94
2023-04-13T21:25:24.353Z,94084.63
2023-04-13T21:27:53.465Z,94089.16
2023-04-13T21:30:20.253Z,94092.59
2023-04-13T21:32:49.148Z,94096.03
2023-04-13T21:35:17.489Z,94109.28
2023-04-13T21:37:44.179Z,94103.16
2023-04-13T21:40:13.215Z,94095.22
2023-04-13T21:42:40.788Z,94097.09
2023-04-13T21:45:09.251Z,94097.31
2023-04-13T21:47:38.058Z,94107.41
2023-04-13T21:50:05.571Z,94102.63
2023-04-13T21:52:32.259Z,94089.38
2023-04-13T21:55:03.264Z,94109.78
2023-04-13T21:57:34.704Z,94113.22
2023-04-13T22:00:05.588Z,94098.94
2023-04-13T22:02:35.667Z,94101.56
2023-04-13T22:05:02.418Z,94097.31
2023-04-13T22:07:41.894Z,94105.03
2023-04-13T22:10:10.524Z,94104.22
2023-04-13T22:12:42.037Z,94104.47
2023-04-13T22:15:11.941Z,94102.63
2023-04-13T22:17:38.906Z,94106.88
2023-04-13T22:20:06.053Z,94105.03
2023-04-13T22:22:35.095Z,94109.50
2023-04-13T22:25:01.726Z,94092.03
2023-04-13T22:27:30.682Z,94097.31
2023-04-13T22:29:57.578Z,94101.56
2023-04-13T22:32:29.518Z,94092.03
2023-04-13T22:34:57.084Z,94099.97
2023-04-13T22:37:31.067Z,94079.84
2023-04-13T22:40:00.551Z,94091.47
2023-04-13T22:42:30.826Z,94099.91
2023-04-13T22:44:59.795Z,94088.84
2023-04-13T22:47:31.194Z,94093.34
2023-04-13T22:50:03.390Z,94095.19
2023-04-13T22:52:30.037Z,94094.13
2023-04-13T22:54:56.731Z,94097.81
2023-04-13T22:57:26.088Z,94088.78
2023-04-13T22:59:55.168Z,94100.25
2023-04-13T23:02:29.555Z,94092.53
2023-04-13T23:05:01.250Z,94088.28
2023-04-13T23:07:30.885Z,94083.53
2023-04-13T23:09:57.569Z,94077.94
2023-04-13T23:12:24.228Z,94093.56
2023-04-13T23:14:56.716Z,94086.41
2023-04-13T23:17:28.128Z,94097.81
2023-04-13T23:19:59.936Z,94097.00
2023-04-13T23:22:28.809Z,94093.81
2023-04-13T23:24:58.988Z,94096.22
2023-04-13T23:27:25.900Z,94087.25
2023-04-13T23:29:55.059Z,94102.31
2023-04-13T23:32:24.246Z,94089.28
2023-04-13T23:34:54.488Z,94096.22
2023-04-13T23:37:23.527Z,94093.56
2023-04-13T23:39:50.506Z,94080.56
2023-04-13T23:42:20.387Z,94099.09
2023-04-13T23:44:47.063Z,94096.22
2023-04-13T23:47:13.732Z,94077.66
2023-04-13T23:49:42.496Z,94080.34
2023-04-13T23:52:14.763Z,94090.94
2023-04-13T23:54:41.461Z,94084.03
2023-04-13T23:57:12.825Z,94088.53
2023-04-13T23:59:40.424Z,94087.72
